createdAt,value
2022-10-20T00:01:05.631Z,17.27
2022-10-20T00:03:32.504Z,16.85
2022-10-20T00:06:15.813Z,15.05
2022-10-20T00:11:11.841Z,19.15
2022-10-20T00:13:39.599Z,14.45
2022-10-20T00:16:06.931Z,17.13
2022-10-20T00:18:34.402Z,18.50
2022-10-20T00:21:08.870Z,15.82
2022-10-20T00:23:36.498Z,13.40
2022-10-20T00:26:06.631Z,19.23
2022-10-20T00:28:33.945Z,18.33
2022-10-20T00:31:01.539Z,13.68
2022-10-20T00:33:28.373Z,16.17
2022-10-20T00:35:55.360Z,17.30
2022-10-20T00:38:22.087Z,20.50
2022-10-20T00:40:48.822Z,14.20
2022-10-20T00:43:16.780Z,19.55
2022-10-20T00:45:50.205Z,18.75
2022-10-20T00:48:21.116Z,19.35
2022-10-20T00:50:52.317Z,14.50
2022-10-20T00:53:21.726Z,15.32
2022-10-20T00:55:52.288Z,15.35
2022-10-20T00:58:19.699Z,15.57
2022-10-20T01:00:50.883Z,16.13
2022-10-20T01:03:24.014Z,15.30
2022-10-20T01:05:50.793Z,14.45
2022-10-20T01:08:17.596Z,14.98
2022-10-20T01:11:02.475Z,16.38
2022-10-20T01:14:08.869Z,14.02
2022-10-20T01:17:05.786Z,15.00
2022-10-20T01:19:50.816Z,16.00
2022-10-20T01:22:29.145Z,16.05
2022-10-20T01:25:14.078Z,13.18
2022-10-20T01:28:04.628Z,15.00
2022-10-20T01:30:34.521Z,13.00
2022-10-20T01:33:04.348Z,15.70
2022-10-20T01:35:52.339Z,16.27
2022-10-20T01:38:26.696Z,14.38
2022-10-20T01:41:13.257Z,17.98
2022-10-20T01:43:43.509Z,15.70
2022-10-20T01:46:11.871Z,14.70
2022-10-20T01:48:40.544Z,16.98
2022-10-20T01:51:08.610Z,20.92
2022-10-20T01:53:35.737Z,20.50
2022-10-20T01:56:03.578Z,14.00
2022-10-20T01:59:01.277Z,19.00
2022-10-20T02:01:51.597Z,19.60
2022-10-20T02:04:28.400Z,12.88
2022-10-20T02:07:13.509Z,16.85
2022-10-20T02:09:48.345Z,16.65
2022-10-20T02:12:24.605Z,16.88
2022-10-20T02:14:52.425Z,16.95
2022-10-20T02:17:20.907Z,13.25
2022-10-20T02:19:51.045Z,13.90
2022-10-20T02:22:19.324Z,19.17
2022-10-20T02:24:48.425Z,15.73
2022-10-20T02:27:20.385Z,16.48
2022-10-20T02:29:53.463Z,13.55
2022-10-20T02:34:48.225Z,15.88
2022-10-20T02:39:46.837Z,14.60
2022-10-20T02:42:13.637Z,21.30
2022-10-20T02:44:40.537Z,12.57
2022-10-20T02:47:07.283Z,15.48
2022-10-20T02:49:34.040Z,15.75
2022-10-20T02:52:00.943Z,16.02
2022-10-20T02:54:28.749Z,17.40
2022-10-20T02:56:56.025Z,18.83
2022-10-20T02:59:22.748Z,15.60
2022-10-20T03:01:51.289Z,18.30
2022-10-20T03:04:18.269Z,15.18
2022-10-20T03:06:45.099Z,20.73
2022-10-20T03:09:11.920Z,16.02
2022-10-20T03:11:38.746Z,15.52
2022-10-20T03:14:05.693Z,13.60
2022-10-20T03:16:32.521Z,14.90
2022-10-20T03:19:03.344Z,17.98
2022-10-20T03:21:34.158Z,16.48
2022-10-20T03:24:00.928Z,19.67
2022-10-20T03:26:27.894Z,19.85
2022-10-20T03:28:54.639Z,15.82
2022-10-20T03:31:21.736Z,19.30
2022-10-20T03:33:48.539Z,13.80
2022-10-20T03:36:15.310Z,22.95
2022-10-20T03:38:45.646Z,21.85
2022-10-20T03:41:13.615Z,12.88
2022-10-20T03:43:40.367Z,18.08
2022-10-20T03:46:11.829Z,17.42
2022-10-20T03:48:39.889Z,15.52
2022-10-20T03:51:07.436Z,19.35
2022-10-20T03:53:34.344Z,18.65
2022-10-20T03:56:06.451Z,15.40
2022-10-20T03:58:33.369Z,15.50
2022-10-20T04:01:00.277Z,12.27
2022-10-20T04:03:27.050Z,14.52
2022-10-20T04:05:53.822Z,15.98
2022-10-20T04:08:20.588Z,15.05
2022-10-20T04:10:47.318Z,22.25
2022-10-20T04:13:14.039Z,16.38
2022-10-20T04:15:40.804Z,20.83
2022-10-20T04:18:08.310Z,16.92
2022-10-20T04:20:35.034Z,12.20
2022-10-20T04:23:01.877Z,11.68
2022-10-20T04:25:28.731Z,15.73
2022-10-20T04:27:55.487Z,14.45
2022-10-20T04:30:22.313Z,12.27
2022-10-20T04:32:49.057Z,19.08
2022-10-20T04:35:15.968Z,17.33
2022-10-20T04:37:42.893Z,17.17
2022-10-20T04:40:10.098Z,15.90
2022-10-20T04:42:36.860Z,15.98
2022-10-20T04:45:03.917Z,14.82
2022-10-20T04:47:34.390Z,15.35
2022-10-20T04:50:01.451Z,15.02
2022-10-20T04:52:29.538Z,20.98
2022-10-20T04:54:56.424Z,18.27
2022-10-20T04:57:23.716Z,14.32
2022-10-20T04:59:50.496Z,18.95
2022-10-20T05:02:17.781Z,12.70
2022-10-20T05:04:44.619Z,17.08
2022-10-20T05:07:11.370Z,17.70
2022-10-20T05:09:38.155Z,13.57
2022-10-20T05:12:05.041Z,15.38
2022-10-20T05:14:31.860Z,12.98
2022-10-20T05:16:58.663Z,20.73
2022-10-20T05:19:25.433Z,14.15
2022-10-20T05:21:52.230Z,17.60
2022-10-20T05:24:21.407Z,16.05
2022-10-20T05:26:49.721Z,19.88
2022-10-20T05:29:16.508Z,17.70
2022-10-20T05:31:44.116Z,12.30
2022-10-20T05:34:11.746Z,17.08
2022-10-20T05:36:39.084Z,13.23
2022-10-20T05:39:06.136Z,11.90
2022-10-20T05:41:37.862Z,13.30
2022-10-20T05:46:38.385Z,12.23
2022-10-20T05:49:05.197Z,14.38
2022-10-20T05:51:35.506Z,18.58
2022-10-20T05:54:03.379Z,18.80
2022-10-20T05:56:31.190Z,15.13
2022-10-20T05:58:58.499Z,14.90
2022-10-20T06:01:28.448Z,16.30
2022-10-20T06:04:00.279Z,15.07
2022-10-20T06:06:29.785Z,12.50
2022-10-20T06:08:58.648Z,14.35
2022-10-20T06:11:26.370Z,16.75
2022-10-20T06:13:53.561Z,15.52
2022-10-20T06:16:25.883Z,16.05
2022-10-20T06:18:53.239Z,16.83
2022-10-20T06:21:23.461Z,15.23
2022-10-20T06:23:50.589Z,20.80
2022-10-20T06:26:20.258Z,13.82
2022-10-20T06:28:49.515Z,13.18
2022-10-20T06:31:21.589Z,13.30
2022-10-20T06:33:49.456Z,14.85
2022-10-20T06:36:17.566Z,18.17
2022-10-20T06:38:44.870Z,17.73
2022-10-20T06:41:18.102Z,15.43
2022-10-20T06:43:45.546Z,19.08
2022-10-20T06:46:18.174Z,14.70
2022-10-20T06:48:45.413Z,15.15
2022-10-20T06:51:14.671Z,14.65
2022-10-20T06:53:45.844Z,16.80
2022-10-20T06:56:19.300Z,17.20
2022-10-20T06:58:48.297Z,15.85
2022-10-20T07:01:20.524Z,14.73
2022-10-20T07:03:48.437Z,15.13
2022-10-20T07:06:21.050Z,17.05
2022-10-20T07:08:48.370Z,13.82
2022-10-20T07:11:18.290Z,16.23
2022-10-20T07:13:46.202Z,17.10
2022-10-20T07:16:15.100Z,15.93
2022-10-20T07:18:42.018Z,16.73
2022-10-20T07:21:14.283Z,15.30
2022-10-20T07:23:41.526Z,16.52
2022-10-20T07:26:12.951Z,14.35
2022-10-20T07:28:42.768Z,14.02
2022-10-20T07:31:15.498Z,16.15
2022-10-20T07:33:42.617Z,16.58
2022-10-20T07:36:24.976Z,21.70
2022-10-20T07:38:54.114Z,17.73
2022-10-20T07:41:21.226Z,20.52
2022-10-20T07:43:48.096Z,18.20
2022-10-20T07:46:16.447Z,14.65
2022-10-20T07:48:43.376Z,17.23
2022-10-20T07:51:27.158Z,16.63
2022-10-20T07:53:59.644Z,13.60
2022-10-20T07:56:33.332Z,15.50
2022-10-20T07:59:00.128Z,18.00
2022-10-20T08:01:27.145Z,19.50
2022-10-20T08:03:53.997Z,21.05
2022-10-20T08:06:21.132Z,20.35
2022-10-20T08:08:48.233Z,14.05
2022-10-20T08:11:15.513Z,18.48
2022-10-20T08:13:42.988Z,15.50
2022-10-20T08:16:11.178Z,17.30
2022-10-20T08:18:42.443Z,16.63
2022-10-20T08:21:17.433Z,16.70
2022-10-20T08:23:46.308Z,14.95
2022-10-20T08:26:19.493Z,13.15
2022-10-20T08:31:16.769Z,15.85
2022-10-20T08:33:43.647Z,17.23
2022-10-20T08:36:13.555Z,17.92
2022-10-20T08:38:41.383Z,16.67
2022-10-20T08:41:18.080Z,15.13
2022-10-20T08:43:47.424Z,14.00
2022-10-20T08:46:19.854Z,19.30
2022-10-20T08:48:47.987Z,13.05
2022-10-20T08:51:28.091Z,16.52
2022-10-20T08:53:58.696Z,15.10
2022-10-20T08:56:33.447Z,16.40
2022-10-20T08:59:01.840Z,20.45
2022-10-20T09:01:33.865Z,18.60
2022-10-20T09:04:04.543Z,19.85
2022-10-20T09:06:31.851Z,20.65
2022-10-20T09:08:58.884Z,19.92
2022-10-20T09:11:36.693Z,19.40
2022-10-20T09:14:03.777Z,20.27
2022-10-20T09:16:58.806Z,17.30
2022-10-20T09:19:25.158Z,18.40
2022-10-20T09:21:55.977Z,15.77
2022-10-20T09:24:24.349Z,17.20
2022-10-20T09:26:59.235Z,20.38
2022-10-20T09:29:38.778Z,15.32
2022-10-20T09:32:46.002Z,17.25
2022-10-20T09:35:24.567Z,20.35
2022-10-20T09:38:11.583Z,18.83
2022-10-20T09:40:46.318Z,20.85
2022-10-20T09:43:18.387Z,23.40
2022-10-20T09:45:53.212Z,17.48
2022-10-20T09:48:27.818Z,16.20
2022-10-20T09:50:56.740Z,19.08
2022-10-20T09:53:52.549Z,17.38
2022-10-20T09:56:28.855Z,24.77
2022-10-20T09:58:57.577Z,19.92
2022-10-20T10:01:24.638Z,20.77
2022-10-20T10:03:53.427Z,20.73
2022-10-20T10:06:31.300Z,21.08
2022-10-20T10:09:01.033Z,23.38
2022-10-20T10:11:36.131Z,23.63
2022-10-20T10:14:04.915Z,25.98
2022-10-20T10:16:41.869Z,21.00
2022-10-20T10:19:16.490Z,20.13
2022-10-20T10:21:51.615Z,31.80
2022-10-20T10:24:24.342Z,24.20
2022-10-20T10:26:56.719Z,22.45
2022-10-20T10:29:25.114Z,22.55
2022-10-20T10:32:18.990Z,20.20
2022-10-20T10:35:09.821Z,21.13
2022-10-20T10:37:39.403Z,25.10
2022-10-20T10:40:20.758Z,19.60
2022-10-20T10:42:53.418Z,28.60
2022-10-20T10:45:32.773Z,20.90
2022-10-20T10:48:26.802Z,21.23
2022-10-20T10:50:58.629Z,20.20
2022-10-20T10:53:34.248Z,25.42
2022-10-20T10:56:10.404Z,23.30
2022-10-20T10:58:52.102Z,21.00
2022-10-20T11:01:55.863Z,20.15
2022-10-20T11:07:23.655Z,20.88
2022-10-20T11:09:56.462Z,22.38
2022-10-20T11:12:28.734Z,21.40
2022-10-20T11:15:39.388Z,21.25
2022-10-20T11:18:11.834Z,21.20
2022-10-20T11:21:13.016Z,21.13
2022-10-20T11:23:45.614Z,22.63
2022-10-20T11:26:40.754Z,22.27
2022-10-20T11:29:20.044Z,23.38
2022-10-20T11:31:57.321Z,20.48
2022-10-20T11:34:58.922Z,24.95
2022-10-20T11:37:37.712Z,26.58
2022-10-20T11:40:10.667Z,23.48
2022-10-20T11:43:10.367Z,32.55
2022-10-20T11:45:57.609Z,24.60
2022-10-20T11:48:47.831Z,25.20
2022-10-20T11:51:29.445Z,24.88
2022-10-20T11:54:30.382Z,26.45
2022-10-20T11:57:10.331Z,23.00
2022-10-20T11:59:51.180Z,27.27
2022-10-20T12:02:19.194Z,29.80
2022-10-20T12:05:10.530Z,29.40
2022-10-20T12:08:11.037Z,28.45
2022-10-20T12:10:49.891Z,29.77
2022-10-20T12:13:54.145Z,30.05
2022-10-20T12:16:51.890Z,28.05
2022-10-20T12:19:21.535Z,34.38
2022-10-20T12:21:55.965Z,28.92
2022-10-20T12:24:50.946Z,27.88
2022-10-20T12:27:28.010Z,32.75
2022-10-20T12:30:17.840Z,29.67
2022-10-20T12:33:08.927Z,30.88
2022-10-20T12:35:59.672Z,30.63
2022-10-20T12:38:27.438Z,31.77
2022-10-20T12:40:58.144Z,28.73
2022-10-20T12:43:37.639Z,27.88
2022-10-20T12:46:09.181Z,37.70
2022-10-20T12:48:42.466Z,30.08
2022-10-20T12:51:21.364Z,27.10
2022-10-20T12:53:58.702Z,33.85
2022-10-20T12:56:34.182Z,27.60
2022-10-20T12:59:21.321Z,22.10
2022-10-20T13:02:09.787Z,27.27
2022-10-20T13:04:58.697Z,29.50
2022-10-20T13:07:50.326Z,25.35
2022-10-20T13:10:37.458Z,27.25
2022-10-20T13:13:04.180Z,23.23
2022-10-20T13:15:43.176Z,26.35
2022-10-20T13:18:12.958Z,25.08
2022-10-20T13:21:13.688Z,23.38
2022-10-20T13:23:43.869Z,31.02
2022-10-20T13:26:25.446Z,26.73
2022-10-20T13:28:54.818Z,28.40
2022-10-20T13:31:51.801Z,30.20
2022-10-20T13:34:40.647Z,25.10
2022-10-20T13:37:32.242Z,31.55
2022-10-20T13:40:42.663Z,26.60
2022-10-20T13:43:09.464Z,26.98
2022-10-20T13:45:48.845Z,24.77
2022-10-20T13:48:28.589Z,28.83
2022-10-20T13:51:10.479Z,30.48
2022-10-20T13:53:44.954Z,26.77
2022-10-20T13:56:17.799Z,32.10
2022-10-20T13:59:05.960Z,31.30
2022-10-20T14:01:35.802Z,28.60
2022-10-20T14:04:02.674Z,24.58
2022-10-20T14:06:38.019Z,27.10
2022-10-20T14:09:31.564Z,31.88
2022-10-20T14:14:31.242Z,28.20
2022-10-20T14:17:01.656Z,27.58
2022-10-20T14:19:30.667Z,31.83
2022-10-20T14:22:00.031Z,25.65
2022-10-20T14:24:26.862Z,27.05
2022-10-20T14:26:54.773Z,27.73
2022-10-20T14:29:24.189Z,22.30
2022-10-20T14:31:51.654Z,27.13
2022-10-20T14:34:21.106Z,31.33
2022-10-20T14:36:49.481Z,24.42
2022-10-20T14:39:38.313Z,29.42
2022-10-20T14:42:24.907Z,25.60
2022-10-20T14:44:53.163Z,22.00
2022-10-20T14:47:20.941Z,29.27
2022-10-20T14:49:52.388Z,26.48
2022-10-20T14:52:21.881Z,24.55
2022-10-20T14:54:51.015Z,23.75
2022-10-20T14:57:17.703Z,30.88
2022-10-20T15:00:23.129Z,28.02
2022-10-20T15:02:56.397Z,25.80
2022-10-20T15:05:24.716Z,29.95
2022-10-20T15:07:52.039Z,34.50
2022-10-20T15:10:22.854Z,25.98
2022-10-20T15:12:53.135Z,28.23
2022-10-20T15:15:27.724Z,24.98
2022-10-20T15:18:15.882Z,28.92
2022-10-20T15:20:44.564Z,25.23
2022-10-20T15:23:15.521Z,24.77
2022-10-20T15:25:45.324Z,29.52
2022-10-20T15:28:37.239Z,24.60
2022-10-20T15:31:17.462Z,24.33
2022-10-20T15:33:44.273Z,28.77
2022-10-20T15:36:16.451Z,29.30
2022-10-20T15:38:43.797Z,25.13
2022-10-20T15:41:18.759Z,29.38
2022-10-20T15:43:45.710Z,28.40
2022-10-20T15:46:14.221Z,29.50
2022-10-20T15:48:41.895Z,27.55
2022-10-20T15:51:17.181Z,27.48
2022-10-20T15:53:46.050Z,26.30
2022-10-20T15:56:12.817Z,29.83
2022-10-20T15:58:39.988Z,31.42
2022-10-20T16:01:07.866Z,34.97
2022-10-20T16:03:35.780Z,27.35
2022-10-20T16:06:02.557Z,32.50
2022-10-20T16:08:29.338Z,29.17
2022-10-20T16:10:56.242Z,30.77
2022-10-20T16:13:23.138Z,36.72
2022-10-20T16:15:49.905Z,25.85
2022-10-20T16:18:16.708Z,32.13
2022-10-20T16:20:43.499Z,26.95
2022-10-20T16:23:10.380Z,28.45
2022-10-20T16:25:40.668Z,31.00
2022-10-20T16:28:07.922Z,25.42
2022-10-20T16:30:34.722Z,30.75
2022-10-20T16:33:01.546Z,29.10
2022-10-20T16:35:28.576Z,28.45
2022-10-20T16:37:55.439Z,28.00
2022-10-20T16:40:22.190Z,28.80
2022-10-20T16:42:48.921Z,41.08
2022-10-20T16:45:15.863Z,30.73
2022-10-20T16:47:42.623Z,30.08
2022-10-20T16:50:09.586Z,29.48
2022-10-20T16:52:36.357Z,29.33
2022-10-20T16:55:03.242Z,30.52
2022-10-20T16:57:33.484Z,27.48
2022-10-20T17:00:00.485Z,29.42
2022-10-20T17:02:27.232Z,33.60
2022-10-20T17:04:53.990Z,32.00
2022-10-20T17:07:20.824Z,26.58
2022-10-20T17:09:47.612Z,28.63
2022-10-20T17:12:14.354Z,26.58
2022-10-20T17:14:41.160Z,29.88
2022-10-20T17:17:08.100Z,31.38
2022-10-20T17:19:35.006Z,36.05
2022-10-20T17:22:01.865Z,33.35
2022-10-20T17:24:28.777Z,28.38
2022-10-20T17:26:55.598Z,27.75
2022-10-20T17:29:25.933Z,28.85
2022-10-20T17:31:53.042Z,27.30
2022-10-20T17:34:20.133Z,28.85
2022-10-20T17:36:46.893Z,25.88
2022-10-20T17:39:16.415Z,24.25
2022-10-20T17:41:43.310Z,27.77
2022-10-20T17:44:10.131Z,27.58
2022-10-20T17:46:36.982Z,25.77
2022-10-20T17:49:03.906Z,30.58
2022-10-20T17:51:34.455Z,25.00
2022-10-20T17:54:02.027Z,32.15
2022-10-20T17:56:31.534Z,26.83
2022-10-20T17:59:00.143Z,29.83
2022-10-20T18:01:30.559Z,34.03
2022-10-20T18:04:03.083Z,29.65
2022-10-20T18:06:34.378Z,30.42
2022-10-20T18:09:06.953Z,27.17
2022-10-20T18:11:35.728Z,25.92
2022-10-20T18:14:03.883Z,30.63
2022-10-20T18:16:34.153Z,29.98
2022-10-20T18:19:01.511Z,26.48
2022-10-20T18:21:29.807Z,27.08
2022-10-20T18:23:58.138Z,28.45
2022-10-20T18:26:25.345Z,24.63
2022-10-20T18:28:52.531Z,31.02
2022-10-20T18:31:22.752Z,30.25
2022-10-20T18:33:52.655Z,30.48
2022-10-20T18:36:20.017Z,32.53
2022-10-20T18:38:47.537Z,32.97
2022-10-20T18:41:22.796Z,28.95
2022-10-20T18:43:58.391Z,31.17
2022-10-20T18:46:26.702Z,33.50
2022-10-20T18:48:53.978Z,29.15
2022-10-20T18:51:21.461Z,31.70
2022-10-20T18:53:52.683Z,33.67
2022-10-20T18:56:21.673Z,34.50
2022-10-20T18:58:59.497Z,33.45
2022-10-20T19:01:32.037Z,29.90
2022-10-20T19:04:00.113Z,34.83
2022-10-20T19:06:39.745Z,29.08
2022-10-20T19:09:09.331Z,31.75
2022-10-20T19:11:39.249Z,27.95
2022-10-20T19:14:07.128Z,33.45
2022-10-20T19:16:35.112Z,28.60
2022-10-20T19:19:04.235Z,29.58
2022-10-20T19:21:31.941Z,30.63
2022-10-20T19:24:07.140Z,27.83
2022-10-20T19:26:49.254Z,29.80
2022-10-20T19:29:24.470Z,30.30
2022-10-20T19:31:56.973Z,32.22
2022-10-20T19:34:27.806Z,30.30
2022-10-20T19:36:55.593Z,40.72
2022-10-20T19:39:27.097Z,28.80
2022-10-20T19:41:55.391Z,30.98
2022-10-20T19:44:22.585Z,36.00
2022-10-20T19:46:51.598Z,28.67
2022-10-20T19:49:20.066Z,33.40
2022-10-20T19:51:46.926Z,33.72
2022-10-20T19:54:14.843Z,31.15
2022-10-20T19:56:41.912Z,32.00
2022-10-20T19:59:09.170Z,34.90
2022-10-20T20:01:37.082Z,31.98
2022-10-20T20:04:04.674Z,31.20
2022-10-20T20:06:31.542Z,31.50
2022-10-20T20:09:01.018Z,32.92
2022-10-20T20:11:30.766Z,37.30
2022-10-20T20:14:00.862Z,31.40
2022-10-20T20:16:28.414Z,28.08
2022-10-20T20:18:55.363Z,33.38
2022-10-20T20:21:23.757Z,35.80
2022-10-20T20:23:59.742Z,37.60
2022-10-20T20:26:28.872Z,35.72
2022-10-20T20:28:56.469Z,35.00
2022-10-20T20:31:23.742Z,37.20
2022-10-20T20:33:51.039Z,29.50
2022-10-20T20:36:17.792Z,32.63
2022-10-20T20:38:44.791Z,29.48
2022-10-20T20:41:14.043Z,28.52
2022-10-20T20:43:40.939Z,34.50
2022-10-20T20:46:18.896Z,32.05
2022-10-20T20:48:46.149Z,35.42
2022-10-20T20:51:13.536Z,35.17
2022-10-20T20:53:41.396Z,32.75
2022-10-20T20:56:13.751Z,30.75
2022-10-20T20:58:42.200Z,33.90
2022-10-20T21:01:12.706Z,28.65
2022-10-20T21:03:39.906Z,37.58
2022-10-20T21:06:12.711Z,30.65
2022-10-20T21:08:41.606Z,32.22
2022-10-20T21:11:12.776Z,33.22
2022-10-20T21:13:41.128Z,36.45
2022-10-20T21:16:29.635Z,35.55
2022-10-20T21:18:59.422Z,31.55
2022-10-20T21:21:28.806Z,33.90
2022-10-20T21:23:56.999Z,30.27
2022-10-20T21:26:24.672Z,39.28
2022-10-20T21:28:52.811Z,35.70
2022-10-20T21:31:22.269Z,31.58
2022-10-20T21:33:59.835Z,34.33
2022-10-20T21:36:29.734Z,28.13
2022-10-20T21:38:56.605Z,37.17
2022-10-20T21:41:26.419Z,36.05
2022-10-20T21:43:55.507Z,31.73
2022-10-20T21:46:28.397Z,34.28
2022-10-20T21:49:11.122Z,35.03
2022-10-20T21:51:43.759Z,35.85
2022-10-20T21:56:51.970Z,34.38
2022-10-20T21:59:22.513Z,33.10
2022-10-20T22:01:50.315Z,33.00
2022-10-20T22:04:18.595Z,32.75
2022-10-20T22:06:45.883Z,30.77
2022-10-20T22:09:13.994Z,27.30
2022-10-20T22:11:43.891Z,27.65
2022-10-20T22:14:10.916Z,28.30
2022-10-20T22:16:40.273Z,27.33
2022-10-20T22:19:09.040Z,28.67
2022-10-20T22:21:38.553Z,24.30
2022-10-20T22:24:06.042Z,25.85
2022-10-20T22:26:33.060Z,33.45
2022-10-20T22:29:00.732Z,28.90
2022-10-20T22:31:27.976Z,27.13
2022-10-20T22:33:57.271Z,25.15
2022-10-20T22:36:25.003Z,27.92
2022-10-20T22:38:51.912Z,29.55
2022-10-20T22:41:18.856Z,27.95
2022-10-20T22:43:45.688Z,26.00
2022-10-20T22:46:12.677Z,29.05
2022-10-20T22:48:39.608Z,28.95
2022-10-20T22:51:08.729Z,30.38
2022-10-20T22:53:36.759Z,31.15
2022-10-20T22:56:18.346Z,27.88
2022-10-20T22:58:45.411Z,30.38
2022-10-20T23:01:18.761Z,31.77
2022-10-20T23:06:16.267Z,33.50
2022-10-20T23:08:45.535Z,31.13
2022-10-20T23:11:13.351Z,36.05
2022-10-20T23:13:40.147Z,41.00
2022-10-20T23:16:07.658Z,36.63
2022-10-20T23:18:34.559Z,38.22
2022-10-20T23:21:01.704Z,31.88
2022-10-20T23:23:28.744Z,34.80
2022-10-20T23:25:56.288Z,32.83
2022-10-20T23:28:24.488Z,36.20
2022-10-20T23:30:51.325Z,34.00
2022-10-20T23:33:18.093Z,28.92
2022-10-20T23:35:47.610Z,29.98
2022-10-20T23:38:14.401Z,31.92
2022-10-20T23:40:41.160Z,23.75
2022-10-20T23:43:07.920Z,24.10
2022-10-20T23:45:36.986Z,22.40
2022-10-20T23:48:04.789Z,15.35
2022-10-20T23:50:31.635Z,18.27
2022-10-20T23:52:58.401Z,18.77
2022-10-20T23:55:25.277Z,21.65
2022-10-20T23:57:52.050Z,24.80
